sensor_id;sensor_type;location;lat;lon;timestamp;P1;durP1;ratioP1;P2;durP2;ratioP2
53293;SDS011;39181;53.440;5.644;2023-05-07T00:00:24;34.10;;;22.23;;
53293;SDS011;39181;53.440;5.644;2023-05-07T00:02:49;39.85;;;24.00;;
53293;SDS011;39181;53.440;5.644;2023-05-07T00:05:15;33.42;;;22.63;;
53293;SDS011;39181;53.440;5.644;2023-05-07T00:07:41;30.83;;;21.88;;
53293;SDS011;39181;53.440;5.644;2023-05-07T00:10:07;35.08;;;22.60;;
53293;SDS011;39181;53.440;5.644;2023-05-07T00:12:33;36.15;;;22.67;;
53293;SDS011;39181;53.440;5.644;2023-05-07T00:14:59;39.60;;;25.20;;
53293;SDS011;39181;53.440;5.644;2023-05-07T00:17:25;35.97;;;22.98;;
53293;SDS011;39181;53.440;5.644;2023-05-07T00:19:51;36.90;;;23.50;;
53293;SDS011;39181;53.440;5.644;2023-05-07T00:22:17;35.25;;;24.55;;
53293;SDS011;39181;53.440;5.644;2023-05-07T00:24:42;36.63;;;24.05;;
53293;SDS011;39181;53.440;5.644;2023-05-07T00:27:08;39.38;;;25.23;;
53293;SDS011;39181;53.440;5.644;2023-05-07T00:29:33;38.22;;;23.27;;
53293;SDS011;39181;53.440;5.644;2023-05-07T00:31:59;36.20;;;24.27;;
53293;SDS011;39181;53.440;5.644;2023-05-07T00:34:25;32.28;;;22.92;;
53293;SDS011;39181;53.440;5.644;2023-05-07T00:36:50;33.80;;;23.65;;
53293;SDS011;39181;53.440;5.644;2023-05-07T00:39:16;37.88;;;25.58;;
53293;SDS011;39181;53.440;5.644;2023-05-07T00:41:41;41.40;;;24.35;;
53293;SDS011;39181;53.440;5.644;2023-05-07T00:44:07;34.38;;;24.85;;
53293;SDS011;39181;53.440;5.644;2023-05-07T00:46:32;39.45;;;26.55;;
53293;SDS011;39181;53.440;5.644;2023-05-07T00:48:59;33.60;;;22.67;;
53293;SDS011;39181;53.440;5.644;2023-05-07T00:51:25;38.25;;;25.33;;
53293;SDS011;39181;53.440;5.644;2023-05-07T00:53:52;37.65;;;24.98;;
53293;SDS011;39181;53.440;5.644;2023-05-07T00:56:18;40.92;;;27.23;;
53293;SDS011;39181;53.440;5.644;2023-05-07T00:58:46;38.20;;;25.75;;
53293;SDS011;39181;53.440;5.644;2023-05-07T01:01:12;41.97;;;25.15;;
53293;SDS011;39181;53.440;5.644;2023-05-07T01:03:38;44.22;;;27.42;;
53293;SDS011;39181;53.440;5.644;2023-05-07T01:06:03;44.70;;;27.58;;
53293;SDS011;39181;53.440;5.644;2023-05-07T01:08:31;41.95;;;26.73;;
53293;SDS011;39181;53.440;5.644;2023-05-07T01:10:57;42.83;;;26.73;;
53293;SDS011;39181;53.440;5.644;2023-05-07T01:13:24;43.05;;;27.05;;
53293;SDS011;39181;53.440;5.644;2023-05-07T01:15:50;42.33;;;28.05;;
53293;SDS011;39181;53.440;5.644;2023-05-07T01:18:16;43.45;;;27.67;;
53293;SDS011;39181;53.440;5.644;2023-05-07T01:20:42;47.78;;;26.58;;
53293;SDS011;39181;53.440;5.644;2023-05-07T01:23:07;44.58;;;27.58;;
53293;SDS011;39181;53.440;5.644;2023-05-07T01:25:35;39.38;;;26.40;;
53293;SDS011;39181;53.440;5.644;2023-05-07T01:28:01;41.75;;;27.85;;
53293;SDS011;39181;53.440;5.644;2023-05-07T01:30:27;42.95;;;27.50;;
53293;SDS011;39181;53.440;5.644;2023-05-07T01:33:04;44.75;;;27.65;;
53293;SDS011;39181;53.440;5.644;2023-05-07T01:35:40;43.30;;;28.55;;
53293;SDS011;39181;53.440;5.644;2023-05-07T01:38:10;39.65;;;26.35;;
53293;SDS011;39181;53.440;5.644;2023-05-07T01:40:36;42.72;;;28.77;;
53293;SDS011;39181;53.440;5.644;2023-05-07T01:43:02;47.08;;;29.27;;
53293;SDS011;39181;53.440;5.644;2023-05-07T01:45:27;47.20;;;29.33;;
53293;SDS011;39181;53.440;5.644;2023-05-07T01:47:55;44.28;;;28.90;;
53293;SDS011;39181;53.440;5.644;2023-05-07T01:50:21;44.55;;;29.10;;
53293;SDS011;39181;53.440;5.644;2023-05-07T01:52:47;51.05;;;30.13;;
53293;SDS011;39181;53.440;5.644;2023-05-07T01:55:15;45.30;;;28.48;;
53293;SDS011;39181;53.440;5.644;2023-05-07T01:57:40;45.30;;;29.23;;
53293;SDS011;39181;53.440;5.644;2023-05-07T02:00:06;48.25;;;30.20;;
53293;SDS011;39181;53.440;5.644;2023-05-07T02:02:33;48.05;;;30.50;;
53293;SDS011;39181;53.440;5.644;2023-05-07T02:04:59;48.97;;;29.23;;
53293;SDS011;39181;53.440;5.644;2023-05-07T02:07:26;47.20;;;29.88;;
53293;SDS011;39181;53.440;5.644;2023-05-07T02:09:52;48.33;;;31.42;;
53293;SDS011;39181;53.440;5.644;2023-05-07T02:12:18;48.80;;;30.15;;
53293;SDS011;39181;53.440;5.644;2023-05-07T02:14:44;46.65;;;30.38;;
53293;SDS011;39181;53.440;5.644;2023-05-07T02:17:10;44.47;;;31.73;;
53293;SDS011;39181;53.440;5.644;2023-05-07T02:19:35;52.13;;;31.90;;
53293;SDS011;39181;53.440;5.644;2023-05-07T02:22:01;49.33;;;32.30;;
53293;SDS011;39181;53.440;5.644;2023-05-07T02:24:26;49.88;;;32.47;;
53293;SDS011;39181;53.440;5.644;2023-05-07T02:26:52;54.33;;;32.13;;
53293;SDS011;39181;53.440;5.644;2023-05-07T02:29:17;61.67;;;33.47;;
53293;SDS011;39181;53.440;5.644;2023-05-07T02:31:43;55.95;;;33.70;;
53293;SDS011;39181;53.440;5.644;2023-05-07T02:34:08;53.55;;;33.40;;
53293;SDS011;39181;53.440;5.644;2023-05-07T02:36:34;57.05;;;34.53;;
53293;SDS011;39181;53.440;5.644;2023-05-07T02:39:00;54.75;;;33.85;;
53293;SDS011;39181;53.440;5.644;2023-05-07T02:41:25;55.30;;;34.50;;
53293;SDS011;39181;53.440;5.644;2023-05-07T02:43:52;58.97;;;34.50;;
53293;SDS011;39181;53.440;5.644;2023-05-07T02:46:18;52.35;;;33.42;;
53293;SDS011;39181;53.440;5.644;2023-05-07T02:48:44;52.80;;;32.05;;
53293;SDS011;39181;53.440;5.644;2023-05-07T02:51:09;56.15;;;32.60;;
53293;SDS011;39181;53.440;5.644;2023-05-07T02:53:35;57.45;;;34.88;;
53293;SDS011;39181;53.440;5.644;2023-05-07T02:56:01;53.17;;;33.15;;
53293;SDS011;39181;53.440;5.644;2023-05-07T02:58:27;49.30;;;32.60;;
53293;SDS011;39181;53.440;5.644;2023-05-07T03:00:53;56.78;;;34.65;;
53293;SDS011;39181;53.440;5.644;2023-05-07T03:03:19;50.53;;;34.63;;
53293;SDS011;39181;53.440;5.644;2023-05-07T03:05:45;51.22;;;33.20;;
53293;SDS011;39181;53.440;5.644;2023-05-07T03:08:11;53.53;;;32.45;;
53293;SDS011;39181;53.440;5.644;2023-05-07T03:10:36;50.30;;;33.63;;
53293;SDS011;39181;53.440;5.644;2023-05-07T03:13:02;52.95;;;32.88;;
53293;SDS011;39181;53.440;5.644;2023-05-07T03:15:28;55.30;;;33.95;;
53293;SDS011;39181;53.440;5.644;2023-05-07T03:17:53;50.78;;;33.15;;
53293;SDS011;39181;53.440;5.644;2023-05-07T03:20:19;52.70;;;33.80;;
53293;SDS011;39181;53.440;5.644;2023-05-07T03:22:45;48.75;;;32.70;;
53293;SDS011;39181;53.440;5.644;2023-05-07T03:25:10;45.60;;;30.35;;
53293;SDS011;39181;53.440;5.644;2023-05-07T03:27:36;50.53;;;32.50;;
53293;SDS011;39181;53.440;5.644;2023-05-07T03:30:02;49.00;;;30.45;;
53293;SDS011;39181;53.440;5.644;2023-05-07T03:32:28;47.55;;;28.85;;
53293;SDS011;39181;53.440;5.644;2023-05-07T03:34:53;43.75;;;28.30;;
53293;SDS011;39181;53.440;5.644;2023-05-07T03:37:19;44.22;;;27.60;;
53293;SDS011;39181;53.440;5.644;2023-05-07T03:39:44;45.28;;;28.88;;
53293;SDS011;39181;53.440;5.644;2023-05-07T03:42:10;44.30;;;29.05;;
53293;SDS011;39181;53.440;5.644;2023-05-07T03:44:35;47.55;;;29.45;;
53293;SDS011;39181;53.440;5.644;2023-05-07T03:47:01;48.95;;;28.25;;
53293;SDS011;39181;53.440;5.644;2023-05-07T03:49:27;49.30;;;28.88;;
53293;SDS011;39181;53.440;5.644;2023-05-07T03:51:53;43.75;;;27.50;;
53293;SDS011;39181;53.440;5.644;2023-05-07T03:54:18;40.30;;;27.92;;
53293;SDS011;39181;53.440;5.644;2023-05-07T03:56:44;37.05;;;26.90;;
53293;SDS011;39181;53.440;5.644;2023-05-07T03:59:09;46.83;;;27.40;;
53293;SDS011;39181;53.440;5.644;2023-05-07T04:01:35;44.38;;;28.25;;
53293;SDS011;39181;53.440;5.644;2023-05-07T04:04:01;42.00;;;28.00;;
53293;SDS011;39181;53.440;5.644;2023-05-07T04:06:28;44.33;;;28.65;;
53293;SDS011;39181;53.440;5.644;2023-05-07T04:08:53;43.60;;;29.10;;
53293;SDS011;39181;53.440;5.644;2023-05-07T04:11:19;39.75;;;26.38;;
53293;SDS011;39181;53.440;5.644;2023-05-07T04:13:45;46.25;;;27.63;;
53293;SDS011;39181;53.440;5.644;2023-05-07T04:16:10;51.38;;;28.98;;
53293;SDS011;39181;53.440;5.644;2023-05-07T04:18:36;42.80;;;27.75;;
53293;SDS011;39181;53.440;5.644;2023-05-07T04:21:02;43.50;;;27.33;;
53293;SDS011;39181;53.440;5.644;2023-05-07T04:23:27;43.00;;;26.77;;
53293;SDS011;39181;53.440;5.644;2023-05-07T04:25:53;43.05;;;27.80;;
53293;SDS011;39181;53.440;5.644;2023-05-07T04:28:19;43.30;;;26.90;;
53293;SDS011;39181;53.440;5.644;2023-05-07T04:30:45;43.08;;;27.85;;
53293;SDS011;39181;53.440;5.644;2023-05-07T04:33:11;45.35;;;27.38;;
53293;SDS011;39181;53.440;5.644;2023-05-07T04:35:36;47.20;;;28.52;;
53293;SDS011;39181;53.440;5.644;2023-05-07T04:38:02;45.60;;;28.70;;
53293;SDS011;39181;53.440;5.644;2023-05-07T04:40:28;41.33;;;26.27;;
53293;SDS011;39181;53.440;5.644;2023-05-07T04:42:54;45.67;;;27.45;;
53293;SDS011;39181;53.440;5.644;2023-05-07T04:45:19;48.88;;;28.63;;
53293;SDS011;39181;53.440;5.644;2023-05-07T04:47:45;46.88;;;28.60;;
53293;SDS011;39181;53.440;5.644;2023-05-07T04:50:10;45.13;;;28.23;;
53293;SDS011;39181;53.440;5.644;2023-05-07T04:52:36;45.70;;;28.15;;
53293;SDS011;39181;53.440;5.644;2023-05-07T04:55:02;47.15;;;28.48;;
53293;SDS011;39181;53.440;5.644;2023-05-07T04:57:28;46.85;;;28.45;;
53293;SDS011;39181;53.440;5.644;2023-05-07T04:59:54;47.25;;;27.33;;
53293;SDS011;39181;53.440;5.644;2023-05-07T05:02:19;50.38;;;28.42;;
53293;SDS011;39181;53.440;5.644;2023-05-07T05:04:45;46.00;;;28.30;;
53293;SDS011;39181;53.440;5.644;2023-05-07T05:07:11;46.13;;;27.63;;
53293;SDS011;39181;53.440;5.644;2023-05-07T05:09:36;46.25;;;28.08;;
53293;SDS011;39181;53.440;5.644;2023-05-07T05:12:02;45.15;;;27.67;;
53293;SDS011;39181;53.440;5.644;2023-05-07T05:14:28;45.67;;;28.42;;
53293;SDS011;39181;53.440;5.644;2023-05-07T05:16:54;46.17;;;28.45;;
53293;SDS011;39181;53.440;5.644;2023-05-07T05:19:20;46.42;;;28.27;;
53293;SDS011;39181;53.440;5.644;2023-05-07T05:21:45;42.42;;;27.48;;
53293;SDS011;39181;53.440;5.644;2023-05-07T05:24:11;47.35;;;29.55;;
53293;SDS011;39181;53.440;5.644;2023-05-07T05:26:36;52.00;;;28.27;;
53293;SDS011;39181;53.440;5.644;2023-05-07T05:29:02;43.40;;;26.83;;
53293;SDS011;39181;53.440;5.644;2023-05-07T05:31:27;42.92;;;27.35;;
53293;SDS011;39181;53.440;5.644;2023-05-07T05:33:53;46.33;;;27.02;;
53293;SDS011;39181;53.440;5.644;2023-05-07T05:36:19;50.00;;;29.02;;
53293;SDS011;39181;53.440;5.644;2023-05-07T05:38:44;44.25;;;27.30;;
53293;SDS011;39181;53.440;5.644;2023-05-07T05:41:10;42.38;;;28.85;;
53293;SDS011;39181;53.440;5.644;2023-05-07T05:43:35;46.47;;;29.40;;
53293;SDS011;39181;53.440;5.644;2023-05-07T05:46:01;46.60;;;28.55;;
53293;SDS011;39181;53.440;5.644;2023-05-07T05:48:28;43.30;;;27.27;;
53293;SDS011;39181;53.440;5.644;2023-05-07T05:50:54;40.95;;;27.10;;
53293;SDS011;39181;53.440;5.644;2023-05-07T05:53:19;43.72;;;27.27;;
53293;SDS011;39181;53.440;5.644;2023-05-07T05:55:45;40.95;;;26.02;;
53293;SDS011;39181;53.440;5.644;2023-05-07T05:58:11;41.63;;;27.77;;
53293;SDS011;39181;53.440;5.644;2023-05-07T06:00:37;43.75;;;27.88;;
53293;SDS011;39181;53.440;5.644;2023-05-07T06:03:02;44.42;;;26.02;;
53293;SDS011;39181;53.440;5.644;2023-05-07T06:05:28;42.00;;;27.83;;
53293;SDS011;39181;53.440;5.644;2023-05-07T06:07:53;40.85;;;27.35;;
53293;SDS011;39181;53.440;5.644;2023-05-07T06:10:19;39.72;;;25.92;;
53293;SDS011;39181;53.440;5.644;2023-05-07T06:12:45;40.72;;;26.77;;
53293;SDS011;39181;53.440;5.644;2023-05-07T06:15:10;39.58;;;25.70;;
53293;SDS011;39181;53.440;5.644;2023-05-07T06:17:36;40.03;;;26.17;;
53293;SDS011;39181;53.440;5.644;2023-05-07T06:20:01;37.25;;;25.17;;
53293;SDS011;39181;53.440;5.644;2023-05-07T06:22:27;40.35;;;25.10;;
53293;SDS011;39181;53.440;5.644;2023-05-07T06:24:53;35.95;;;25.35;;
53293;SDS011;39181;53.440;5.644;2023-05-07T06:27:18;35.90;;;24.75;;
53293;SDS011;39181;53.440;5.644;2023-05-07T06:29:44;39.72;;;25.92;;
53293;SDS011;39181;53.440;5.644;2023-05-07T06:32:10;39.50;;;25.38;;
53293;SDS011;39181;53.440;5.644;2023-05-07T06:34:36;37.20;;;24.30;;
53293;SDS011;39181;53.440;5.644;2023-05-07T06:37:02;37.75;;;24.95;;
53293;SDS011;39181;53.440;5.644;2023-05-07T06:39:28;38.22;;;25.48;;
53293;SDS011;39181;53.440;5.644;2023-05-07T06:41:54;41.17;;;25.70;;
53293;SDS011;39181;53.440;5.644;2023-05-07T06:44:20;36.05;;;25.17;;
53293;SDS011;39181;53.440;5.644;2023-05-07T06:46:45;35.35;;;24.63;;
53293;SDS011;39181;53.440;5.644;2023-05-07T06:49:14;34.45;;;24.45;;
53293;SDS011;39181;53.440;5.644;2023-05-07T06:51:40;35.08;;;23.08;;
53293;SDS011;39181;53.440;5.644;2023-05-07T06:54:06;33.83;;;23.65;;
53293;SDS011;39181;53.440;5.644;2023-05-07T06:56:32;35.92;;;24.73;;
53293;SDS011;39181;53.440;5.644;2023-05-07T06:58:57;36.80;;;25.17;;
53293;SDS011;39181;53.440;5.644;2023-05-07T07:01:24;33.92;;;24.02;;
53293;SDS011;39181;53.440;5.644;2023-05-07T07:03:50;33.53;;;23.90;;
53293;SDS011;39181;53.440;5.644;2023-05-07T07:06:16;33.15;;;22.52;;
53293;SDS011;39181;53.440;5.644;2023-05-07T07:08:41;39.85;;;26.27;;
53293;SDS011;39181;53.440;5.644;2023-05-07T07:11:07;33.83;;;24.05;;
53293;SDS011;39181;53.440;5.644;2023-05-07T07:13:33;39.08;;;25.27;;
53293;SDS011;39181;53.440;5.644;2023-05-07T07:15:59;36.10;;;24.30;;
53293;SDS011;39181;53.440;5.644;2023-05-07T07:18:25;36.70;;;24.25;;
53293;SDS011;39181;53.440;5.644;2023-05-07T07:20:51;37.15;;;24.65;;
53293;SDS011;39181;53.440;5.644;2023-05-07T07:23:16;37.22;;;25.80;;
53293;SDS011;39181;53.440;5.644;2023-05-07T07:25:42;35.83;;;24.88;;
53293;SDS011;39181;53.440;5.644;2023-05-07T07:28:07;43.13;;;25.10;;
53293;SDS011;39181;53.440;5.644;2023-05-07T07:30:33;34.50;;;24.75;;
53293;SDS011;39181;53.440;5.644;2023-05-07T07:32:58;35.28;;;24.60;;
53293;SDS011;39181;53.440;5.644;2023-05-07T07:35:31;35.70;;;23.80;;
53293;SDS011;39181;53.440;5.644;2023-05-07T07:37:57;36.60;;;24.92;;
53293;SDS011;39181;53.440;5.644;2023-05-07T07:40:23;36.67;;;23.60;;
53293;SDS011;39181;53.440;5.644;2023-05-07T07:42:49;34.42;;;23.83;;
53293;SDS011;39181;53.440;5.644;2023-05-07T07:45:15;32.22;;;23.50;;
53293;SDS011;39181;53.440;5.644;2023-05-07T07:47:41;35.20;;;24.27;;
53293;SDS011;39181;53.440;5.644;2023-05-07T07:50:07;34.42;;;25.00;;
53293;SDS011;39181;53.440;5.644;2023-05-07T07:52:33;36.72;;;24.05;;
53293;SDS011;39181;53.440;5.644;2023-05-07T07:54:58;36.60;;;24.08;;
53293;SDS011;39181;53.440;5.644;2023-05-07T07:57:24;37.80;;;25.55;;
53293;SDS011;39181;53.440;5.644;2023-05-07T07:59:51;32.92;;;23.55;;
53293;SDS011;39181;53.440;5.644;2023-05-07T08:02:17;32.63;;;23.35;;
53293;SDS011;39181;53.440;5.644;2023-05-07T08:04:43;34.22;;;22.85;;
53293;SDS011;39181;53.440;5.644;2023-05-07T08:07:12;33.65;;;23.75;;
53293;SDS011;39181;53.440;5.644;2023-05-07T08:09:38;29.52;;;22.42;;
53293;SDS011;39181;53.440;5.644;2023-05-07T08:12:04;31.75;;;21.80;;
53293;SDS011;39181;53.440;5.644;2023-05-07T08:14:30;28.83;;;21.88;;
53293;SDS011;39181;53.440;5.644;2023-05-07T08:16:56;29.33;;;22.02;;
53293;SDS011;39181;53.440;5.644;2023-05-07T08:19:22;30.98;;;22.85;;
53293;SDS011;39181;53.440;5.644;2023-05-07T08:21:47;30.15;;;22.10;;
53293;SDS011;39181;53.440;5.644;2023-05-07T08:24:14;30.92;;;21.35;;
53293;SDS011;39181;53.440;5.644;2023-05-07T08:26:40;29.20;;;21.15;;
53293;SDS011;39181;53.440;5.644;2023-05-07T08:29:06;31.77;;;21.27;;
53293;SDS011;39181;53.440;5.644;2023-05-07T08:31:35;26.45;;;20.70;;
53293;SDS011;39181;53.440;5.644;2023-05-07T08:34:01;30.77;;;21.70;;
53293;SDS011;39181;53.440;5.644;2023-05-07T08:36:26;28.90;;;21.05;;
53293;SDS011;39181;53.440;5.644;2023-05-07T08:38:53;33.88;;;23.20;;
53293;SDS011;39181;53.440;5.644;2023-05-07T08:41:19;32.72;;;21.65;;
53293;SDS011;39181;53.440;5.644;2023-05-07T08:43:49;30.83;;;20.92;;
53293;SDS011;39181;53.440;5.644;2023-05-07T08:46:19;28.80;;;20.98;;
53293;SDS011;39181;53.440;5.644;2023-05-07T08:48:49;28.88;;;21.52;;
53293;SDS011;39181;53.440;5.644;2023-05-07T08:51:17;24.30;;;19.58;;
53293;SDS011;39181;53.440;5.644;2023-05-07T08:53:46;28.40;;;19.90;;
53293;SDS011;39181;53.440;5.644;2023-05-07T08:56:15;28.30;;;20.30;;
53293;SDS011;39181;53.440;5.644;2023-05-07T08:58:42;25.02;;;19.08;;
53293;SDS011;39181;53.440;5.644;2023-05-07T09:01:09;25.92;;;19.77;;
53293;SDS011;39181;53.440;5.644;2023-05-07T09:03:38;24.58;;;20.13;;
53293;SDS011;39181;53.440;5.644;2023-05-07T09:06:04;25.52;;;18.98;;
53293;SDS011;39181;53.440;5.644;2023-05-07T09:08:32;26.00;;;19.15;;
53293;SDS011;39181;53.440;5.644;2023-05-07T09:10:58;28.58;;;20.83;;
53293;SDS011;39181;53.440;5.644;2023-05-07T09:13:23;26.02;;;19.15;;
53293;SDS011;39181;53.440;5.644;2023-05-07T09:15:49;25.10;;;19.75;;
53293;SDS011;39181;53.440;5.644;2023-05-07T09:18:15;26.33;;;19.80;;
53293;SDS011;39181;53.440;5.644;2023-05-07T09:20:41;26.17;;;19.23;;
53293;SDS011;39181;53.440;5.644;2023-05-07T09:23:06;28.95;;;19.45;;
53293;SDS011;39181;53.440;5.644;2023-05-07T09:25:33;27.88;;;19.30;;
53293;SDS011;39181;53.440;5.644;2023-05-07T09:28:00;26.60;;;19.83;;
53293;SDS011;39181;53.440;5.644;2023-05-07T09:30:29;25.80;;;18.70;;
53293;SDS011;39181;53.440;5.644;2023-05-07T09:32:56;26.30;;;19.02;;
53293;SDS011;39181;53.440;5.644;2023-05-07T09:35:24;25.70;;;18.10;;
53293;SDS011;39181;53.440;5.644;2023-05-07T09:37:55;24.80;;;18.17;;
53293;SDS011;39181;53.440;5.644;2023-05-07T09:40:24;23.60;;;17.75;;
53293;SDS011;39181;53.440;5.644;2023-05-07T09:42:51;25.30;;;18.63;;
53293;SDS011;39181;53.440;5.644;2023-05-07T09:45:29;22.95;;;17.90;;
53293;SDS011;39181;53.440;5.644;2023-05-07T09:47:55;24.73;;;18.90;;
53293;SDS011;39181;53.440;5.644;2023-05-07T09:50:25;22.83;;;17.77;;
53293;SDS011;39181;53.440;5.644;2023-05-07T09:52:53;23.17;;;18.95;;
53293;SDS011;39181;53.440;5.644;2023-05-07T09:55:21;26.40;;;18.83;;
53293;SDS011;39181;53.440;5.644;2023-05-07T09:57:48;24.13;;;20.20;;
53293;SDS011;39181;53.440;5.644;2023-05-07T10:00:16;23.10;;;18.48;;
53293;SDS011;39181;53.440;5.644;2023-05-07T10:02:44;26.90;;;18.20;;
53293;SDS011;39181;53.440;5.644;2023-05-07T10:05:13;24.80;;;19.60;;
53293;SDS011;39181;53.440;5.644;2023-05-07T10:07:40;25.00;;;20.20;;
53293;SDS011;39181;53.440;5.644;2023-05-07T10:10:06;24.35;;;19.55;;
53293;SDS011;39181;53.440;5.644;2023-05-07T10:12:32;23.40;;;17.85;;
53293;SDS011;39181;53.440;5.644;2023-05-07T10:15:05;26.90;;;18.85;;
53293;SDS011;39181;53.440;5.644;2023-05-07T10:17:34;24.30;;;19.27;;
53293;SDS011;39181;53.440;5.644;2023-05-07T10:20:06;24.50;;;18.67;;
53293;SDS011;39181;53.440;5.644;2023-05-07T10:22:46;25.15;;;19.20;;
53293;SDS011;39181;53.440;5.644;2023-05-07T10:25:17;22.30;;;18.40;;
53293;SDS011;39181;53.440;5.644;2023-05-07T10:27:47;21.02;;;16.95;;
53293;SDS011;39181;53.440;5.644;2023-05-07T10:32:59;22.70;;;18.05;;
53293;SDS011;39181;53.440;5.644;2023-05-07T10:35:31;22.48;;;17.13;;
53293;SDS011;39181;53.440;5.644;2023-05-07T10:38:03;24.40;;;17.63;;
53293;SDS011;39181;53.440;5.644;2023-05-07T10:40:30;20.70;;;18.15;;
53293;SDS011;39181;53.440;5.644;2023-05-07T10:42:56;22.00;;;17.95;;
53293;SDS011;39181;53.440;5.644;2023-05-07T10:45:24;21.02;;;17.83;;
53293;SDS011;39181;53.440;5.644;2023-05-07T10:48:06;23.15;;;18.20;;
53293;SDS011;39181;53.440;5.644;2023-05-07T10:50:32;21.23;;;17.03;;
53293;SDS011;39181;53.440;5.644;2023-05-07T10:55:41;22.45;;;17.73;;
53293;SDS011;39181;53.440;5.644;2023-05-07T11:00:59;21.63;;;17.85;;
53293;SDS011;39181;53.440;5.644;2023-05-07T11:03:26;23.73;;;18.02;;
53293;SDS011;39181;53.440;5.644;2023-05-07T11:06:08;23.27;;;18.17;;
53293;SDS011;39181;53.440;5.644;2023-05-07T11:14:09;21.83;;;18.13;;
53293;SDS011;39181;53.440;5.644;2023-05-07T11:16:35;23.35;;;18.90;;
53293;SDS011;39181;53.440;5.644;2023-05-07T11:19:03;23.80;;;20.02;;
53293;SDS011;39181;53.440;5.644;2023-05-07T11:21:35;26.50;;;20.17;;
53293;SDS011;39181;53.440;5.644;2023-05-07T11:24:03;22.70;;;18.30;;
53293;SDS011;39181;53.440;5.644;2023-05-07T11:26:31;22.77;;;18.42;;
53293;SDS011;39181;53.440;5.644;2023-05-07T11:29:16;20.27;;;17.40;;
53293;SDS011;39181;53.440;5.644;2023-05-07T11:31:43;22.90;;;18.23;;
53293;SDS011;39181;53.440;5.644;2023-05-07T11:34:09;22.95;;;18.33;;
53293;SDS011;39181;53.440;5.644;2023-05-07T11:36:35;20.90;;;17.85;;
53293;SDS011;39181;53.440;5.644;2023-05-07T11:39:06;21.15;;;18.38;;
53293;SDS011;39181;53.440;5.644;2023-05-07T11:41:57;23.92;;;18.88;;
53293;SDS011;39181;53.440;5.644;2023-05-07T11:44:42;23.90;;;19.23;;
53293;SDS011;39181;53.440;5.644;2023-05-07T11:47:09;22.05;;;18.65;;
53293;SDS011;39181;53.440;5.644;2023-05-07T11:49:35;25.38;;;19.02;;
53293;SDS011;39181;53.440;5.644;2023-05-07T11:52:01;24.45;;;19.05;;
53293;SDS011;39181;53.440;5.644;2023-05-07T11:54:34;22.83;;;18.25;;
53293;SDS011;39181;53.440;5.644;2023-05-07T11:57:00;24.30;;;17.88;;
53293;SDS011;39181;53.440;5.644;2023-05-07T11:59:26;23.55;;;18.05;;
53293;SDS011;39181;53.440;5.644;2023-05-07T12:01:51;23.65;;;18.67;;
53293;SDS011;39181;53.440;5.644;2023-05-07T12:04:19;24.30;;;18.35;;
53293;SDS011;39181;53.440;5.644;2023-05-07T12:06:45;21.80;;;18.42;;
53293;SDS011;39181;53.440;5.644;2023-05-07T12:09:11;21.65;;;18.35;;
53293;SDS011;39181;53.440;5.644;2023-05-07T12:11:36;20.83;;;17.77;;
53293;SDS011;39181;53.440;5.644;2023-05-07T12:14:04;28.70;;;18.55;;
53293;SDS011;39181;53.440;5.644;2023-05-07T12:16:30;23.67;;;19.42;;
53293;SDS011;39181;53.440;5.644;2023-05-07T12:18:56;23.00;;;19.23;;
53293;SDS011;39181;53.440;5.644;2023-05-07T12:21:23;22.85;;;18.13;;
53293;SDS011;39181;53.440;5.644;2023-05-07T12:23:50;25.85;;;18.95;;
53293;SDS011;39181;53.440;5.644;2023-05-07T12:26:15;24.27;;;18.88;;
53293;SDS011;39181;53.440;5.644;2023-05-07T12:28:41;21.73;;;18.13;;
53293;SDS011;39181;53.440;5.644;2023-05-07T12:31:07;26.38;;;19.77;;
53293;SDS011;39181;53.440;5.644;2023-05-07T12:33:33;21.77;;;18.88;;
53293;SDS011;39181;53.440;5.644;2023-05-07T12:36:02;20.70;;;17.83;;
53293;SDS011;39181;53.440;5.644;2023-05-07T12:38:34;21.35;;;17.98;;
53293;SDS011;39181;53.440;5.644;2023-05-07T12:41:01;21.15;;;18.23;;
53293;SDS011;39181;53.440;5.644;2023-05-07T12:43:28;19.15;;;16.13;;
53293;SDS011;39181;53.440;5.644;2023-05-07T12:45:55;21.45;;;17.48;;
53293;SDS011;39181;53.440;5.644;2023-05-07T12:48:23;20.30;;;17.45;;
53293;SDS011;39181;53.440;5.644;2023-05-07T12:50:55;21.83;;;18.50;;
53293;SDS011;39181;53.440;5.644;2023-05-07T12:53:23;23.83;;;19.33;;
53293;SDS011;39181;53.440;5.644;2023-05-07T12:55:59;24.15;;;18.15;;
53293;SDS011;39181;53.440;5.644;2023-05-07T12:58:26;24.05;;;18.27;;
53293;SDS011;39181;53.440;5.644;2023-05-07T13:00:56;22.25;;;17.95;;
53293;SDS011;39181;53.440;5.644;2023-05-07T13:03:29;22.80;;;18.63;;
53293;SDS011;39181;53.440;5.644;2023-05-07T13:06:00;22.58;;;18.40;;
53293;SDS011;39181;53.440;5.644;2023-05-07T13:08:32;22.45;;;18.85;;
53293;SDS011;39181;53.440;5.644;2023-05-07T13:11:01;21.00;;;17.58;;
53293;SDS011;39181;53.440;5.644;2023-05-07T13:13:32;20.85;;;17.30;;
53293;SDS011;39181;53.440;5.644;2023-05-07T13:16:00;22.70;;;17.75;;
53293;SDS011;39181;53.440;5.644;2023-05-07T13:18:26;20.70;;;17.92;;
53293;SDS011;39181;53.440;5.644;2023-05-07T13:20:52;20.92;;;18.50;;
53293;SDS011;39181;53.440;5.644;2023-05-07T13:23:18;23.45;;;18.50;;
53293;SDS011;39181;53.440;5.644;2023-05-07T13:25:44;21.77;;;17.88;;
53293;SDS011;39181;53.440;5.644;2023-05-07T13:28:09;23.77;;;18.25;;
53293;SDS011;39181;53.440;5.644;2023-05-07T13:30:35;22.73;;;18.15;;
53293;SDS011;39181;53.440;5.644;2023-05-07T13:33:01;20.85;;;17.35;;
53293;SDS011;39181;53.440;5.644;2023-05-07T13:35:27;20.73;;;17.10;;
53293;SDS011;39181;53.440;5.644;2023-05-07T13:37:53;24.58;;;18.33;;
53293;SDS011;39181;53.440;5.644;2023-05-07T13:40:20;20.90;;;18.05;;
53293;SDS011;39181;53.440;5.644;2023-05-07T13:42:46;20.13;;;17.95;;
53293;SDS011;39181;53.440;5.644;2023-05-07T13:45:12;18.88;;;16.27;;
53293;SDS011;39181;53.440;5.644;2023-05-07T13:47:39;23.13;;;16.48;;
53293;SDS011;39181;53.440;5.644;2023-05-07T13:50:06;19.55;;;15.93;;
53293;SDS011;39181;53.440;5.644;2023-05-07T13:52:33;18.90;;;16.75;;
53293;SDS011;39181;53.440;5.644;2023-05-07T13:54:58;18.23;;;16.33;;
53293;SDS011;39181;53.440;5.644;2023-05-07T13:57:24;21.13;;;16.90;;
53293;SDS011;39181;53.440;5.644;2023-05-07T13:59:49;18.85;;;15.52;;
53293;SDS011;39181;53.440;5.644;2023-05-07T14:02:15;20.80;;;16.75;;
53293;SDS011;39181;53.440;5.644;2023-05-07T14:04:41;20.00;;;15.55;;
53293;SDS011;39181;53.440;5.644;2023-05-07T14:07:06;17.42;;;15.55;;
53293;SDS011;39181;53.440;5.644;2023-05-07T14:09:32;17.10;;;14.90;;
53293;SDS011;39181;53.440;5.644;2023-05-07T14:11:58;18.65;;;15.60;;
53293;SDS011;39181;53.440;5.644;2023-05-07T14:14:24;17.98;;;14.57;;
53293;SDS011;39181;53.440;5.644;2023-05-07T14:16:49;18.45;;;15.38;;
53293;SDS011;39181;53.440;5.644;2023-05-07T14:19:15;17.88;;;14.57;;
53293;SDS011;39181;53.440;5.644;2023-05-07T14:21:41;18.58;;;15.68;;
53293;SDS011;39181;53.440;5.644;2023-05-07T14:24:06;17.35;;;15.15;;
53293;SDS011;39181;53.440;5.644;2023-05-07T14:26:33;16.48;;;14.77;;
53293;SDS011;39181;53.440;5.644;2023-05-07T14:28:59;17.42;;;15.18;;
53293;SDS011;39181;53.440;5.644;2023-05-07T14:31:25;16.92;;;14.57;;